Time;durP1;ratioP1;P1;durP2;ratioP2;P2;SDS_P1;SDS_P2;PMS_P1;PMS_P2;Temp;Humidity;BMP_temperature;BMP_pressure;BME280_temperature;BME280_humidity;BME280_pressure;Samples;Min_cycle;Max_cycle;Signal;HPM_P1;HPM_P2
2023/04/10 00:00:38;;;;;;;1.50;1.30;;;;;;;;;;5111262;27;87068;-59
2023/04/10 00:03:07;;;;;;;3.07;1.90;;;;;;;;;;5112591;27;88081;-59
2023/04/10 00:05:36;;;;;;;2.50;1.77;;;;;;;;;;5118107;27;89041;-59
2023/04/10 00:08:04;;;;;;;2.53;1.40;;;;;;;;;;5121049;27;89256;-59
2023/04/10 00:10:33;;;;;;;2.00;1.83;;;;;;;;;;5112028;27;87022;-59
2023/04/10 00:13:02;;;;;;;1.67;1.50;;;;;;;;;;5120342;27;87002;-59
2023/04/10 00:15:30;;;;;;;3.63;1.67;;;;;;;;;;5113351;27;90071;-59
2023/04/10 00:17:59;;;;;;;2.57;1.87;;;;;;;;;;5102939;27;89779;-59
2023/04/10 00:20:28;;;;;;;3.57;1.57;;;;;;;;;;5101068;27;87043;-59
2023/04/10 00:22:57;;;;;;;2.03;1.47;;;;;;;;;;5096349;27;87007;-59
2023/04/10 00:25:25;;;;;;;1.70;1.53;;;;;;;;;;5102333;27;89328;-59
2023/04/10 00:27:53;;;;;;;2.43;1.27;;;;;;;;;;5095919;27;88993;-59
2023/04/10 00:30:22;;;;;;;2.07;1.30;;;;;;;;;;5111658;27;88194;-59
2023/04/10 00:32:50;;;;;;;2.30;1.63;;;;;;;;;;5110697;27;86870;-59
2023/04/10 00:35:18;;;;;;;4.50;2.17;;;;;;;;;;5105820;27;89242;-59
2023/04/10 00:37:49;;;;;;;1.67;1.30;;;;;;;;;;5124411;27;88963;-59
2023/04/10 00:40:17;;;;;;;2.60;1.70;;;;;;;;;;5116343;27;87910;-59
2023/04/10 00:42:45;;;;;;;2.20;1.50;;;;;;;;;;5103294;27;87004;-59
2023/04/10 00:45:13;;;;;;;2.93;1.50;;;;;;;;;;5106034;27;87939;-59
2023/04/10 00:47:42;;;;;;;2.57;1.53;;;;;;;;;;5111899;27;88852;-59
2023/04/10 00:50:11;;;;;;;2.73;2.00;;;;;;;;;;5111923;27;87070;-59
2023/04/10 00:52:39;;;;;;;3.90;1.87;;;;;;;;;;5124163;27;87537;-59
2023/04/10 00:55:09;;;;;;;2.63;1.77;;;;;;;;;;5107268;27;89058;-59
2023/04/10 00:57:38;;;;;;;2.90;1.60;;;;;;;;;;5120236;27;88993;-59
2023/04/10 01:00:07;;;;;;;3.70;1.93;;;;;;;;;;5119866;27;87092;-59
2023/04/10 01:02:35;;;;;;;2.63;1.43;;;;;;;;;;5123667;27;88074;-59
2023/04/10 01:05:03;;;;;;;2.80;2.00;;;;;;;;;;5119935;27;90201;-59
2023/04/10 01:07:36;;;;;;;3.97;1.93;;;;;;;;;;5114042;27;89967;-59
2023/04/10 01:10:05;;;;;;;2.43;1.90;;;;;;;;;;5100389;27;89362;-59
2023/04/10 01:12:41;;;;;;;2.00;1.47;;;;;;;;;;5110937;27;87415;-59
2023/04/10 01:15:10;;;;;;;2.20;1.60;;;;;;;;;;5116880;27;89153;-59
2023/04/10 01:17:41;;;;;;;3.63;1.53;;;;;;;;;;5105200;27;89046;-59
2023/04/10 01:20:10;;;;;;;2.87;1.80;;;;;;;;;;5108402;27;87727;-59
2023/04/10 01:22:39;;;;;;;2.23;1.50;;;;;;;;;;5126704;27;86157;-59
2023/04/10 01:25:25;;;;;;;2.93;1.73;;;;;;;;;;5116795;27;89495;-59
2023/04/10 01:28:00;;;;;;;1.53;1.37;;;;;;;;;;5100899;27;88899;-59
2023/04/10 01:30:29;;;;;;;4.83;2.00;;;;;;;;;;5123342;27;87960;-59
2023/04/10 01:32:59;;;;;;;1.73;1.20;;;;;;;;;;5116255;27;87017;-59
2023/04/10 01:35:28;;;;;;;2.03;1.00;;;;;;;;;;5123091;27;89101;-59
2023/04/10 01:37:56;;;;;;;1.60;1.47;;;;;;;;;;5113984;27;88676;-59
2023/04/10 01:40:24;;;;;;;2.30;1.60;;;;;;;;;;5111386;27;86907;-59
2023/04/10 01:42:53;;;;;;;1.33;1.23;;;;;;;;;;5100501;27;86990;-59
2023/04/10 01:45:22;;;;;;;2.30;1.57;;;;;;;;;;5121447;27;88897;-59
2023/04/10 01:47:52;;;;;;;3.50;1.87;;;;;;;;;;5122740;27;89075;-59
2023/04/10 01:50:22;;;;;;;1.30;1.20;;;;;;;;;;5109541;27;87096;-59
2023/04/10 01:52:51;;;;;;;4.27;2.13;;;;;;;;;;5125284;27;87062;-59
2023/04/10 01:55:20;;;;;;;2.90;1.57;;;;;;;;;;5123947;27;90124;-59
2023/04/10 01:57:48;;;;;;;2.33;1.73;;;;;;;;;;5111504;27;90344;-59
2023/04/10 02:00:17;;;;;;;2.63;1.80;;;;;;;;;;5100750;27;86968;-59
2023/04/10 02:02:45;;;;;;;2.37;1.83;;;;;;;;;;5114616;27;86985;-59
2023/04/10 02:05:15;;;;;;;2.77;1.63;;;;;;;;;;5105931;27;89532;-59
2023/04/10 02:07:45;;;;;;;5.93;1.93;;;;;;;;;;5109593;27;88974;-59
2023/04/10 02:10:14;;;;;;;1.63;1.50;;;;;;;;;;5124324;27;87163;-59
2023/04/10 02:12:44;;;;;;;2.57;1.53;;;;;;;;;;5123852;27;86309;-59
2023/04/10 02:15:12;;;;;;;3.07;1.40;;;;;;;;;;5102851;27;89068;-59
2023/04/10 02:17:40;;;;;;;2.80;1.93;;;;;;;;;;5113432;27;88764;-59
2023/04/10 02:20:09;;;;;;;2.23;1.57;;;;;;;;;;5105376;27;88000;-59
2023/04/10 02:22:38;;;;;;;2.40;1.60;;;;;;;;;;5119821;27;87080;-59
2023/04/10 02:25:07;;;;;;;2.33;2.03;;;;;;;;;;5119189;27;89227;-59
2023/04/10 02:27:36;;;;;;;1.87;1.50;;;;;;;;;;5116592;27;89004;-58
2023/04/10 02:30:04;;;;;;;1.93;1.70;;;;;;;;;;5105781;27;87310;-60
2023/04/10 02:32:33;;;;;;;3.00;2.03;;;;;;;;;;5120641;27;87483;-59
2023/04/10 02:35:01;;;;;;;2.70;1.90;;;;;;;;;;5117567;27;89186;-59
2023/04/10 02:37:30;;;;;;;1.70;1.60;;;;;;;;;;5113239;27;88875;-59
2023/04/10 02:39:59;;;;;;;4.07;2.00;;;;;;;;;;5108613;27;86902;-59
2023/04/10 02:42:28;;;;;;;2.87;1.67;;;;;;;;;;5113229;27;87026;-59
2023/04/10 02:44:56;;;;;;;1.97;1.60;;;;;;;;;;5105248;27;89988;-60
2023/04/10 02:47:24;;;;;;;2.00;1.80;;;;;;;;;;5114537;27;89567;-60
2023/04/10 02:49:53;;;;;;;2.93;1.97;;;;;;;;;;5115876;27;86874;-59
2023/04/10 02:52:22;;;;;;;2.13;1.70;;;;;;;;;;5088517;27;87093;-60
2023/04/10 02:54:50;;;;;;;4.90;1.93;;;;;;;;;;5101095;27;89158;-60
2023/04/10 02:57:20;;;;;;;2.67;1.80;;;;;;;;;;5115558;27;88830;-60
2023/04/10 02:59:50;;;;;;;2.10;1.50;;;;;;;;;;5102324;27;87118;-60
2023/04/10 03:02:19;;;;;;;2.50;1.87;;;;;;;;;;5104335;27;86948;-60
2023/04/10 03:04:47;;;;;;;2.80;2.00;;;;;;;;;;5122171;27;88779;-59
2023/04/10 03:07:15;;;;;;;3.07;1.83;;;;;;;;;;5113041;27;88747;-60
2023/04/10 03:09:44;;;;;;;2.00;1.20;;;;;;;;;;5095120;27;90474;-60
2023/04/10 03:12:12;;;;;;;2.37;2.00;;;;;;;;;;5093933;27;87264;-60
2023/04/10 03:14:42;;;;;;;3.23;1.90;;;;;;;;;;5103093;27;89242;-59
2023/04/10 03:17:11;;;;;;;3.40;1.70;;;;;;;;;;5113129;27;88873;-59
2023/04/10 03:19:39;;;;;;;3.43;2.70;;;;;;;;;;5101239;27;87146;-60
2023/04/10 03:22:08;;;;;;;3.73;1.87;;;;;;;;;;5111871;27;86955;-60
2023/04/10 03:24:38;;;;;;;3.20;1.60;;;;;;;;;;5103660;27;89102;-59
2023/04/10 03:27:07;;;;;;;1.80;1.60;;;;;;;;;;5103664;27;88583;-60
2023/04/10 03:29:35;;;;;;;2.73;1.67;;;;;;;;;;5104233;27;87007;-60
2023/04/10 03:32:05;;;;;;;1.90;1.63;;;;;;;;;;5119828;27;87664;-60
2023/04/10 03:34:33;;;;;;;5.47;1.93;;;;;;;;;;5110526;27;90634;-60
2023/04/10 03:37:02;;;;;;;5.70;2.60;;;;;;;;;;5100988;27;89617;-60
2023/04/10 03:39:30;;;;;;;3.73;1.90;;;;;;;;;;5118523;27;87068;-60
2023/04/10 03:41:58;;;;;;;2.97;2.17;;;;;;;;;;5103335;27;88213;-59
2023/04/10 03:44:26;;;;;;;2.50;1.70;;;;;;;;;;5115638;27;88948;-60
2023/04/10 03:46:55;;;;;;;2.23;2.03;;;;;;;;;;5123931;27;88803;-59
2023/04/10 03:49:24;;;;;;;2.00;1.80;;;;;;;;;;5119665;27;87137;-59
2023/04/10 03:51:53;;;;;;;2.40;1.40;;;;;;;;;;5113061;27;88183;-59
2023/04/10 03:54:21;;;;;;;2.23;1.90;;;;;;;;;;5086964;27;88950;-59
2023/04/10 03:56:49;;;;;;;1.63;1.10;;;;;;;;;;5098669;27;89312;-59
2023/04/10 03:59:17;;;;;;;1.93;1.60;;;;;;;;;;5116617;27;87836;-60
2023/04/10 04:01:46;;;;;;;2.67;1.73;;;;;;;;;;5098590;27;87036;-60
2023/04/10 04:04:14;;;;;;;2.43;1.70;;;;;;;;;;5092325;27;87570;-60
2023/04/10 04:06:44;;;;;;;1.70;1.30;;;;;;;;;;5105068;27;88846;-59
2023/04/10 04:09:12;;;;;;;3.03;1.73;;;;;;;;;;5119239;27;87407;-59
2023/04/10 04:11:41;;;;;;;1.77;1.30;;;;;;;;;;5123040;27;87045;-59
2023/04/10 04:14:10;;;;;;;2.13;1.90;;;;;;;;;;5127154;27;89464;-59
2023/04/10 04:16:38;;;;;;;3.13;1.87;;;;;;;;;;5116739;27;87674;-60
2023/04/10 04:19:06;;;;;;;2.07;1.73;;;;;;;;;;5106115;27;87458;-61
2023/04/10 04:21:34;;;;;;;2.40;1.60;;;;;;;;;;5100447;27;87008;-62
2023/04/10 04:24:04;;;;;;;1.40;1.30;;;;;;;;;;5106326;27;89849;-59
2023/04/10 04:26:32;;;;;;;2.20;1.67;;;;;;;;;;5112991;27;89727;-60
2023/04/10 04:29:01;;;;;;;2.27;1.60;;;;;;;;;;5125844;27;86921;-59
2023/04/10 04:31:31;;;;;;;2.20;1.40;;;;;;;;;;5109489;27;87072;-60
2023/04/10 04:33:59;;;;;;;3.23;1.57;;;;;;;;;;5116265;27;89183;-60
2023/04/10 04:36:28;;;;;;;1.63;1.53;;;;;;;;;;5115694;27;88774;-59
2023/04/10 04:38:56;;;;;;;2.13;1.70;;;;;;;;;;5107375;27;87354;-59
2023/04/10 04:41:26;;;;;;;1.73;1.37;;;;;;;;;;5106741;27;86170;-59
2023/04/10 04:43:54;;;;;;;1.57;1.33;;;;;;;;;;5116549;27;89115;-59
2023/04/10 04:46:23;;;;;;;2.37;1.47;;;;;;;;;;5106923;27;88992;-59
2023/04/10 04:48:51;;;;;;;1.50;1.40;;;;;;;;;;5111606;27;88977;-60
2023/04/10 04:51:19;;;;;;;1.77;1.33;;;;;;;;;;5114669;27;86937;-59
2023/04/10 04:53:47;;;;;;;2.23;1.27;;;;;;;;;;5115384;27;89246;-59
2023/04/10 04:56:16;;;;;;;2.33;1.43;;;;;;;;;;5117469;27;88591;-59
2023/04/10 04:58:45;;;;;;;1.10;1.00;;;;;;;;;;5108742;27;87101;-59
2023/04/10 05:01:14;;;;;;;1.17;1.07;;;;;;;;;;5105801;27;86823;-60
2023/04/10 05:03:42;;;;;;;1.90;1.13;;;;;;;;;;5097841;27;89113;-60
2023/04/10 05:06:11;;;;;;;2.07;1.30;;;;;;;;;;5117645;27;88742;-59
2023/04/10 05:08:40;;;;;;;1.33;1.23;;;;;;;;;;5114568;27;87005;-61
2023/04/10 05:11:08;;;;;;;2.37;1.70;;;;;;;;;;5111115;27;86970;-61
2023/04/10 05:13:36;;;;;;;1.60;1.43;;;;;;;;;;5123729;27;90025;-61
2023/04/10 05:16:06;;;;;;;1.87;1.27;;;;;;;;;;5107720;27;90003;-61
2023/04/10 05:18:35;;;;;;;3.23;1.50;;;;;;;;;;5118578;27;87155;-61
2023/04/10 05:21:03;;;;;;;1.40;1.30;;;;;;;;;;5096647;27;87081;-61
2023/04/10 05:23:32;;;;;;;1.30;1.10;;;;;;;;;;5116299;27;88992;-61
2023/04/10 05:26:00;;;;;;;2.90;1.27;;;;;;;;;;5104101;27;88496;-61
2023/04/10 05:28:28;;;;;;;2.00;1.17;;;;;;;;;;5093309;27;87015;-61
2023/04/10 05:30:56;;;;;;;0.87;0.87;;;;;;;;;;5114874;27;86375;-61
2023/04/10 05:33:26;;;;;;;1.80;1.37;;;;;;;;;;5111350;27;89118;-61
2023/04/10 05:35:55;;;;;;;1.20;1.10;;;;;;;;;;5104346;27;88796;-61
2023/04/10 05:38:24;;;;;;;1.00;0.80;;;;;;;;;;5111885;27;88106;-61
2023/04/10 05:40:52;;;;;;;1.80;0.97;;;;;;;;;;5118934;27;87510;-60
2023/04/10 05:43:21;;;;;;;2.03;1.00;;;;;;;;;;5125631;27;88007;-61
2023/04/10 05:45:49;;;;;;;1.43;1.33;;;;;;;;;;5101108;27;88882;-61
2023/04/10 05:48:17;;;;;;;1.70;1.10;;;;;;;;;;5112573;27;87025;-60
2023/04/10 05:50:47;;;;;;;2.20;1.40;;;;;;;;;;5110694;27;87023;-61
2023/04/10 05:53:15;;;;;;;1.23;1.13;;;;;;;;;;5120637;27;89166;-61
2023/04/10 05:55:43;;;;;;;1.33;1.23;;;;;;;;;;5108088;27;87791;-61
2023/04/10 05:58:12;;;;;;;2.57;1.20;;;;;;;;;;5101544;27;86984;-61
2023/04/10 06:00:40;;;;;;;2.30;1.20;;;;;;;;;;5105016;27;87059;-61
2023/04/10 06:03:08;;;;;;;1.10;1.00;;;;;;;;;;5104532;27;90067;-61
2023/04/10 06:05:37;;;;;;;1.40;1.10;;;;;;;;;;5114390;27;88619;-61
2023/04/10 06:08:06;;;;;;;1.33;1.10;;;;;;;;;;5094079;27;87058;-61
2023/04/10 06:10:35;;;;;;;1.53;1.03;;;;;;;;;;5113422;27;88387;-60
2023/04/10 06:13:03;;;;;;;1.23;1.10;;;;;;;;;;5122570;27;89030;-60
2023/04/10 06:15:31;;;;;;;1.90;0.90;;;;;;;;;;5115311;27;88816;-63
2023/04/10 06:17:59;;;;;;;1.10;1.07;;;;;;;;;;5123226;27;87109;-62
2023/04/10 06:20:28;;;;;;;1.17;1.07;;;;;;;;;;5114075;27;86341;-63
2023/04/10 06:22:56;;;;;;;1.30;0.80;;;;;;;;;;5109432;27;87790;-62
2023/04/10 06:25:26;;;;;;;1.17;1.10;;;;;;;;;;5102630;27;88675;-59
2023/04/10 06:27:54;;;;;;;0.73;0.73;;;;;;;;;;5107324;27;87968;-60
2023/04/10 06:30:22;;;;;;;1.63;0.90;;;;;;;;;;5092333;27;87113;-61
2023/04/10 06:32:51;;;;;;;3.13;1.30;;;;;;;;;;5098164;27;88447;-61
2023/04/10 06:35:20;;;;;;;1.97;0.90;;;;;;;;;;5106924;27;88852;-63
2023/04/10 06:37:48;;;;;;;2.23;0.80;;;;;;;;;;5113803;27;87079;-64
2023/04/10 06:40:16;;;;;;;1.43;1.23;;;;;;;;;;5119540;27;87017;-73
2023/04/10 06:42:46;;;;;;;1.30;0.90;;;;;;;;;;5115321;27;89141;-61
2023/04/10 06:45:14;;;;;;;3.47;1.20;;;;;;;;;;5103451;27;88851;-61
2023/04/10 06:47:42;;;;;;;0.70;0.70;;;;;;;;;;5118740;27;88922;-61
2023/04/10 06:50:11;;;;;;;0.93;0.87;;;;;;;;;;5114235;27;87059;-61
2023/04/10 06:52:39;;;;;;;1.40;1.13;;;;;;;;;;5103844;27;88756;-61
2023/04/10 06:55:08;;;;;;;1.47;1.10;;;;;;;;;;5108663;27;89459;-61
2023/04/10 06:57:36;;;;;;;1.50;0.60;;;;;;;;;;5105202;27;87196;-61
2023/04/10 07:00:08;;;;;;;1.00;0.80;;;;;;;;;;5112876;27;87145;-61
2023/04/10 07:02:36;;;;;;;1.43;1.13;;;;;;;;;;5101248;27;89128;-61
2023/04/10 07:05:05;;;;;;;0.87;0.70;;;;;;;;;;5109785;27;88883;-60
2023/04/10 07:07:33;;;;;;;0.93;0.77;;;;;;;;;;5100623;27;87161;-60
2023/04/10 07:10:01;;;;;;;0.90;0.90;;;;;;;;;;5107716;27;86398;-63
2023/04/10 07:12:29;;;;;;;0.70;0.60;;;;;;;;;;5107866;27;88933;-62
2023/04/10 07:14:58;;;;;;;1.67;0.97;;;;;;;;;;5094860;27;88930;-62
2023/04/10 07:17:27;;;;;;;0.97;0.90;;;;;;;;;;5093342;27;87962;-62
2023/04/10 07:19:56;;;;;;;0.80;0.80;;;;;;;;;;5093943;27;86861;-62
2023/04/10 07:22:24;;;;;;;0.90;0.90;;;;;;;;;;5091469;27;89260;-68
2023/04/10 07:24:52;;;;;;;0.90;0.90;;;;;;;;;;5100686;27;88469;-63
2023/04/10 07:27:22;;;;;;;0.93;0.70;;;;;;;;;;5106469;27;87051;-64
2023/04/10 07:29:50;;;;;;;1.43;0.60;;;;;;;;;;5100504;27;86964;-64
2023/04/10 07:32:18;;;;;;;0.60;0.60;;;;;;;;;;5095611;27;88976;-64
2023/04/10 07:34:48;;;;;;;0.70;0.70;;;;;;;;;;5091779;27;88615;-62
2023/04/10 07:37:16;;;;;;;0.67;0.60;;;;;;;;;;5104156;27;87045;-67
2023/04/10 07:39:45;;;;;;;0.93;0.63;;;;;;;;;;5094579;27;86980;-61
2023/04/10 07:42:13;;;;;;;0.70;0.70;;;;;;;;;;5099726;27;89261;-63
2023/04/10 07:44:41;;;;;;;3.90;0.80;;;;;;;;;;5098733;27;89770;-62
2023/04/10 07:47:10;;;;;;;0.70;0.70;;;;;;;;;;5104744;27;87175;-62
2023/04/10 07:49:38;;;;;;;2.87;0.87;;;;;;;;;;5105976;27;86824;-62
2023/04/10 07:52:08;;;;;;;1.10;1.00;;;;;;;;;;5104970;27;88674;-67
2023/04/10 07:54:36;;;;;;;2.20;1.30;;;;;;;;;;5110699;27;88646;-62
2023/04/10 07:57:04;;;;;;;1.60;1.50;;;;;;;;;;5113706;27;87114;-63
2023/04/10 07:59:33;;;;;;;1.90;1.20;;;;;;;;;;5111824;27;86619;-63
2023/04/10 08:02:01;;;;;;;2.47;1.50;;;;;;;;;;5083471;27;89177;-63
2023/04/10 08:04:29;;;;;;;2.07;1.40;;;;;;;;;;5093635;27;88973;-63
2023/04/10 08:06:58;;;;;;;3.10;1.47;;;;;;;;;;5098645;27;87770;-63
2023/04/10 08:09:28;;;;;;;1.70;1.40;;;;;;;;;;5089931;27;86852;-63
2023/04/10 08:11:57;;;;;;;1.70;1.37;;;;;;;;;;5082403;27;89436;-62
2023/04/10 08:14:25;;;;;;;1.60;1.20;;;;;;;;;;5086324;27;88918;-63
2023/04/10 08:16:53;;;;;;;1.63;1.37;;;;;;;;;;5103061;27;87996;-62
2023/04/10 08:19:22;;;;;;;1.93;1.40;;;;;;;;;;5100920;27;88792;-63
2023/04/10 08:21:50;;;;;;;1.63;1.20;;;;;;;;;;5082079;27;89183;-63
2023/04/10 08:24:20;;;;;;;1.20;1.10;;;;;;;;;;5099718;27;89260;-63
2023/04/10 08:26:50;;;;;;;1.73;1.27;;;;;;;;;;5100114;27;87146;-63
2023/04/10 08:29:18;;;;;;;2.17;1.17;;;;;;;;;;5086094;27;87128;-62
2023/04/10 08:31:47;;;;;;;2.70;1.43;;;;;;;;;;5084826;27;90029;-62
2023/04/10 08:34:15;;;;;;;1.43;1.23;;;;;;;;;;5085913;27;88655;-63
2023/04/10 08:36:43;;;;;;;1.27;1.17;;;;;;;;;;5123439;27;87163;-62
2023/04/10 08:39:12;;;;;;;1.43;1.30;;;;;;;;;;5101816;27;87710;-62
2023/04/10 08:41:41;;;;;;;2.53;1.20;;;;;;;;;;5098773;27;89008;-63
2023/04/10 08:44:10;;;;;;;1.77;1.30;;;;;;;;;;5091083;27;88689;-63
2023/04/10 08:46:39;;;;;;;1.27;1.10;;;;;;;;;;5083234;27;87024;-63
2023/04/10 08:49:07;;;;;;;2.37;1.30;;;;;;;;;;5091886;27;86325;-63
2023/04/10 08:51:37;;;;;;;1.57;1.47;;;;;;;;;;5099137;27;88783;-63
2023/04/10 08:54:06;;;;;;;1.00;0.93;;;;;;;;;;5085342;27;88916;-63
2023/04/10 08:56:35;;;;;;;2.97;1.10;;;;;;;;;;5095627;27;88108;-63
2023/04/10 08:59:03;;;;;;;3.17;1.37;;;;;;;;;;5098596;27;87000;-63
2023/04/10 09:01:35;;;;;;;1.37;1.27;;;;;;;;;;5089835;27;88979;-63
2023/04/10 09:04:03;;;;;;;1.67;1.50;;;;;;;;;;5097691;27;87419;-63
2023/04/10 09:06:32;;;;;;;1.33;1.00;;;;;;;;;;5102258;27;87011;-63
2023/04/10 09:09:00;;;;;;;1.30;0.80;;;;;;;;;;5114109;27;88638;-63
2023/04/10 09:11:59;;;;;;;1.67;1.30;;;;;;;;;;5105522;27;88790;-63
2023/04/10 09:14:28;;;;;;;2.50;1.00;;;;;;;;;;5080713;27;88824;-63
2023/04/10 09:17:12;;;;;;;1.77;1.20;;;;;;;;;;5087192;27;88848;-63
2023/04/10 09:19:41;;;;;;;1.17;1.00;;;;;;;;;;5100681;27;86974;-63
2023/04/10 09:22:09;;;;;;;1.77;1.30;;;;;;;;;;5102097;27;90052;-63
2023/04/10 09:24:37;;;;;;;3.73;1.03;;;;;;;;;;5102713;27;89609;-63
2023/04/10 09:27:06;;;;;;;1.17;0.83;;;;;;;;;;5105988;27;86825;-63
2023/04/10 09:29:42;;;;;;;2.07;1.20;;;;;;;;;;5104165;27;86938;-63
2023/04/10 09:32:11;;;;;;;0.80;0.80;;;;;;;;;;5105668;27;89150;-63
2023/04/10 09:34:52;;;;;;;0.97;0.87;;;;;;;;;;5105640;27;88881;-63
2023/04/10 09:37:21;;;;;;;1.33;1.17;;;;;;;;;;5103796;27;87084;-63
2023/04/10 09:39:50;;;;;;;1.70;1.00;;;;;;;;;;5106055;27;87320;-62
2023/04/10 09:42:18;;;;;;;1.93;1.20;;;;;;;;;;5105046;27;89130;-63
2023/04/10 09:44:46;;;;;;;0.97;0.90;;;;;;;;;;5105307;27;89031;-62
2023/04/10 09:47:20;;;;;;;2.67;0.90;;;;;;;;;;5099997;27;88263;-63
2023/04/10 09:49:48;;;;;;;1.03;1.00;;;;;;;;;;5105802;27;86836;-63
2023/04/10 09:52:20;;;;;;;1.73;1.10;;;;;;;;;;5105182;27;89262;-63
2023/04/10 09:54:48;;;;;;;1.17;1.07;;;;;;;;;;5105337;27;88738;-63
2023/04/10 09:57:17;;;;;;;1.03;0.80;;;;;;;;;;5104668;27;87243;-63
2023/04/10 09:59:48;;;;;;;2.97;0.83;;;;;;;;;;5103686;27;87005;-62
2023/04/10 10:02:16;;;;;;;1.10;0.90;;;;;;;;;;5088786;27;89143;-63
2023/04/10 10:04:46;;;;;;;1.67;1.00;;;;;;;;;;5098986;27;88826;-63
2023/04/10 10:07:15;;;;;;;1.73;0.97;;;;;;;;;;5093547;27;87043;-63
2023/04/10 10:09:44;;;;;;;1.00;0.90;;;;;;;;;;5104942;27;87013;-63
2023/04/10 10:12:12;;;;;;;2.10;1.50;;;;;;;;;;5100836;27;90099;-63
2023/04/10 10:14:43;;;;;;;2.07;1.23;;;;;;;;;;5099232;27;89720;-63
2023/04/10 10:17:11;;;;;;;3.77;1.10;;;;;;;;;;5102834;27;87061;-63
2023/04/10 10:19:42;;;;;;;5.33;1.43;;;;;;;;;;5104065;27;87044;-63
2023/04/10 10:22:11;;;;;;;1.77;1.10;;;;;;;;;;5103701;27;89523;-63
2023/04/10 10:24:40;;;;;;;1.33;1.17;;;;;;;;;;5121487;27;87381;-62
2023/04/10 10:27:10;;;;;;;1.97;0.90;;;;;;;;;;5108468;27;86961;-63
2023/04/10 10:29:40;;;;;;;2.20;1.40;;;;;;;;;;5096704;27;88388;-62
2023/04/10 10:32:08;;;;;;;3.33;1.57;;;;;;;;;;5096871;27;88009;-62
2023/04/10 10:34:36;;;;;;;1.60;1.20;;;;;;;;;;5089543;27;87047;-62
2023/04/10 10:37:04;;;;;;;1.27;0.93;;;;;;;;;;5087202;27;88094;-61
2023/04/10 10:39:35;;;;;;;3.43;2.10;;;;;;;;;;5088831;27;87032;-63
2023/04/10 10:42:09;;;;;;;1.17;0.97;;;;;;;;;;5098835;27;89106;-63
2023/04/10 10:44:40;;;;;;;1.57;1.43;;;;;;;;;;5103438;27;87338;-62
2023/04/10 10:47:11;;;;;;;1.87;1.17;;;;;;;;;;5114995;27;87077;-61
2023/04/10 10:49:57;;;;;;;3.23;1.40;;;;;;;;;;5104519;27;87373;-62
2023/04/10 10:52:43;;;;;;;2.57;1.30;;;;;;;;;;5092138;27;89392;-61
2023/04/10 10:55:31;;;;;;;2.23;1.30;;;;;;;;;;5101762;27;88906;-62
2023/04/10 10:58:01;;;;;;;1.30;1.20;;;;;;;;;;5094890;27;87095;-62
2023/04/10 11:00:47;;;;;;;2.10;1.33;;;;;;;;;;5103789;27;87014;-61
2023/04/10 11:03:28;;;;;;;1.23;1.13;;;;;;;;;;5102607;27;90031;-62
2023/04/10 11:05:58;;;;;;;1.53;1.10;;;;;;;;;;5096737;27;89798;-62
2023/04/10 11:08:36;;;;;;;1.17;1.07;;;;;;;;;;5091755;27;87489;-62
2023/04/10 11:11:04;;;;;;;1.17;1.03;;;;;;;;;;5095005;27;87122;-61
2023/04/10 11:13:34;;;;;;;2.00;1.33;;;;;;;;;;5103042;27;89144;-61
2023/04/10 11:16:03;;;;;;;3.70;1.83;;;;;;;;;;5100782;27;88908;-59
2023/04/10 11:18:50;;;;;;;9.73;3.93;;;;;;;;;;5100046;27;88022;-60
2023/04/10 11:21:37;;;;;;;8.33;4.10;;;;;;;;;;5088345;27;87802;-60
2023/04/10 11:24:06;;;;;;;8.63;3.80;;;;;;;;;;5092235;27;89345;-62
2023/04/10 11:26:38;;;;;;;7.43;4.17;;;;;;;;;;5102585;27;88845;-60
2023/04/10 11:29:08;;;;;;;5.50;2.30;;;;;;;;;;5102353;27;88998;-60
2023/04/10 11:31:36;;;;;;;3.90;1.87;;;;;;;;;;5102848;27;87023;-61
2023/04/10 11:34:05;;;;;;;4.03;1.30;;;;;;;;;;5101453;27;88072;-61
2023/04/10 11:36:33;;;;;;;2.13;1.40;;;;;;;;;;5100841;27;88704;-63
2023/04/10 11:39:04;;;;;;;3.80;1.57;;;;;;;;;;5101403;27;87165;-61
2023/04/10 11:41:33;;;;;;;3.20;2.17;;;;;;;;;;5100285;27;86896;-61
2023/04/10 11:44:01;;;;;;;1.33;1.20;;;;;;;;;;5100033;27;87566;-62
2023/04/10 11:46:31;;;;;;;1.70;1.20;;;;;;;;;;5096335;27;88897;-62
2023/04/10 11:49:00;;;;;;;2.20;1.30;;;;;;;;;;5101837;27;87033;-64
2023/04/10 11:51:28;;;;;;;2.23;1.30;;;;;;;;;;5102257;27;87071;-63
2023/04/10 11:54:06;;;;;;;1.30;1.17;;;;;;;;;;5095860;27;89936;-62
2023/04/10 11:56:35;;;;;;;2.60;1.20;;;;;;;;;;5101635;27;88322;-62
2023/04/10 11:59:06;;;;;;;1.53;1.20;;;;;;;;;;5102311;27;87600;-62
2023/04/10 12:01:36;;;;;;;1.03;0.70;;;;;;;;;;5097699;27;88127;-62
2023/04/10 12:04:06;;;;;;;0.87;0.87;;;;;;;;;;5100513;27;89037;-60
2023/04/10 12:06:35;;;;;;;1.33;1.20;;;;;;;;;;5099017;27;88782;-61
2023/04/10 12:09:12;;;;;;;2.50;0.90;;;;;;;;;;5101448;27;87127;-62
2023/04/10 12:11:48;;;;;;;1.13;0.80;;;;;;;;;;5093813;27;86581;-63
2023/04/10 12:14:16;;;;;;;0.83;0.83;;;;;;;;;;5099459;27;88964;-61
2023/04/10 12:16:46;;;;;;;3.17;1.13;;;;;;;;;;5097251;27;87771;-60
2023/04/10 12:19:15;;;;;;;5.93;1.27;;;;;;;;;;5083898;27;87829;-60
2023/04/10 12:21:43;;;;;;;1.10;0.90;;;;;;;;;;5084356;27;86833;-63
2023/04/10 12:24:12;;;;;;;0.97;0.87;;;;;;;;;;5099222;27;89155;-63
2023/04/10 12:26:47;;;;;;;1.30;1.00;;;;;;;;;;5101798;27;88575;-63
2023/04/10 12:29:15;;;;;;;1.17;1.07;;;;;;;;;;5103882;27;87098;-62
2023/04/10 12:31:44;;;;;;;1.30;1.00;;;;;;;;;;5106698;27;87055;-63
2023/04/10 12:34:13;;;;;;;1.37;1.00;;;;;;;;;;5104917;27;89138;-63
2023/04/10 12:36:41;;;;;;;1.03;0.90;;;;;;;;;;5098014;27;89005;-64
2023/04/10 12:39:22;;;;;;;1.00;0.90;;;;;;;;;;5094427;27;86994;-64
2023/04/10 12:41:50;;;;;;;0.93;0.90;;;;;;;;;;5106124;27;86926;-63
2023/04/10 12:44:19;;;;;;;1.10;1.00;;;;;;;;;;5105505;27;89328;-63
2023/04/10 12:46:47;;;;;;;1.13;1.07;;;;;;;;;;5105204;27;90348;-63
2023/04/10 12:49:17;;;;;;;0.60;0.60;;;;;;;;;;5104777;27;87555;-63
2023/04/10 12:51:45;;;;;;;0.90;0.90;;;;;;;;;;5106051;27;87076;-63
2023/04/10 12:54:27;;;;;;;2.03;1.00;;;;;;;;;;5104381;27;89175;-63
2023/04/10 12:56:56;;;;;;;2.00;0.93;;;;;;;;;;5105347;27;88877;-63
2023/04/10 12:59:25;;;;;;;1.60;1.07;;;;;;;;;;5104144;27;87054;-63
2023/04/10 13:01:53;;;;;;;1.17;0.77;;;;;;;;;;5105799;27;86901;-63
2023/04/10 13:04:23;;;;;;;1.13;0.80;;;;;;;;;;5100128;27;89144;-61
2023/04/10 13:06:52;;;;;;;2.00;1.00;;;;;;;;;;5104154;27;88852;-63
2023/04/10 13:09:21;;;;;;;1.63;0.70;;;;;;;;;;5096477;27;89037;-63
2023/04/10 13:11:49;;;;;;;1.10;1.00;;;;;;;;;;5091553;27;87065;-62
2023/04/10 13:14:19;;;;;;;1.17;0.93;;;;;;;;;;5111033;27;89240;-61
2023/04/10 13:16:47;;;;;;;2.80;1.00;;;;;;;;;;5126696;27;88885;-63
2023/04/10 13:19:16;;;;;;;1.60;1.10;;;;;;;;;;5101430;27;86986;-61
2023/04/10 13:21:45;;;;;;;2.03;1.27;;;;;;;;;;5104196;27;87078;-63
2023/04/10 13:24:14;;;;;;;1.10;0.70;;;;;;;;;;5102145;27;87876;-63
2023/04/10 13:26:44;;;;;;;1.60;1.17;;;;;;;;;;5103168;27;87674;-63
2023/04/10 13:29:12;;;;;;;1.07;0.90;;;;;;;;;;5102330;27;87448;-62
2023/04/10 13:31:40;;;;;;;1.07;0.77;;;;;;;;;;5103226;27;86961;-63
2023/04/10 13:34:09;;;;;;;0.93;0.90;;;;;;;;;;5102845;27;90176;-62
2023/04/10 13:36:37;;;;;;;0.60;0.60;;;;;;;;;;5102861;27;89941;-63
2023/04/10 13:39:07;;;;;;;0.60;0.60;;;;;;;;;;5102817;27;87115;-63
2023/04/10 13:41:35;;;;;;;3.13;1.00;;;;;;;;;;5101905;27;88327;-63
2023/04/10 13:44:04;;;;;;;1.13;1.03;;;;;;;;;;5103098;27;89605;-63
2023/04/10 13:46:32;;;;;;;0.90;0.80;;;;;;;;;;5103552;27;88197;-63
2023/04/10 13:49:01;;;;;;;3.83;1.33;;;;;;;;;;5103377;27;87527;-62
2023/04/10 13:51:30;;;;;;;1.97;1.07;;;;;;;;;;5101830;27;86212;-63
2023/04/10 13:53:58;;;;;;;1.20;1.10;;;;;;;;;;5102009;27;88376;-63
2023/04/10 13:56:29;;;;;;;3.83;1.87;;;;;;;;;;5102463;27;88949;-62
2023/04/10 13:58:57;;;;;;;1.27;1.17;;;;;;;;;;5102874;27;87951;-63
2023/04/10 14:01:25;;;;;;;2.17;1.70;;;;;;;;;;5103349;27;87049;-63
2023/04/10 14:03:54;;;;;;;1.30;1.20;;;;;;;;;;5102118;27;89099;-63
2023/04/10 14:06:22;;;;;;;3.20;1.63;;;;;;;;;;5100644;27;88981;-62
2023/04/10 14:08:50;;;;;;;1.20;1.00;;;;;;;;;;5099519;27;86915;-62
2023/04/10 14:11:19;;;;;;;1.63;1.30;;;;;;;;;;5100789;27;87086;-62
2023/04/10 14:13:49;;;;;;;3.63;1.53;;;;;;;;;;5102668;27;89062;-62
2023/04/10 14:16:17;;;;;;;1.40;1.23;;;;;;;;;;5103365;27;89455;-62
2023/04/10 14:18:45;;;;;;;2.20;1.20;;;;;;;;;;5103438;27;87143;-62
2023/04/10 14:21:13;;;;;;;1.30;1.20;;;;;;;;;;5102169;27;87663;-62
2023/04/10 14:23:42;;;;;;;1.70;0.90;;;;;;;;;;5098576;27;90030;-62
2023/04/10 14:26:10;;;;;;;2.20;1.60;;;;;;;;;;5102164;27;89734;-62
2023/04/10 14:28:38;;;;;;;2.37;1.33;;;;;;;;;;5099821;27;88381;-62
2023/04/10 14:31:08;;;;;;;1.30;1.17;;;;;;;;;;5100067;27;88324;-61
2023/04/10 14:33:37;;;;;;;1.97;0.87;;;;;;;;;;5089649;27;89254;-61
2023/04/10 14:36:06;;;;;;;1.20;0.80;;;;;;;;;;5097202;27;88830;-61
2023/04/10 14:38:35;;;;;;;1.60;1.23;;;;;;;;;;5083989;27;87224;-61
2023/04/10 14:41:04;;;;;;;2.20;1.20;;;;;;;;;;5097120;27;86340;-62
2023/04/10 14:43:32;;;;;;;1.20;1.10;;;;;;;;;;5124535;27;88908;-60
2023/04/10 14:46:00;;;;;;;1.67;1.03;;;;;;;;;;5114269;27;89028;-62
2023/04/10 14:48:30;;;;;;;1.53;1.10;;;;;;;;;;5103532;27;87888;-61
2023/04/10 14:51:00;;;;;;;1.77;1.20;;;;;;;;;;5102861;27;87093;-62
2023/04/10 14:53:28;;;;;;;1.40;1.13;;;;;;;;;;5103538;27;89370;-62
2023/04/10 14:55:56;;;;;;;1.00;0.70;;;;;;;;;;5102111;27;88801;-62